createdAt,value
2023-03-23T15:58:49.413Z,17.47
2023-03-23T16:01:26.070Z,17.41
2023-03-23T16:04:02.559Z,17.35
2023-03-23T16:06:36.909Z,17.29
2023-03-23T16:09:14.576Z,17.26
2023-03-23T16:11:46.716Z,17.24
2023-03-23T16:14:18.704Z,17.19
2023-03-23T16:16:58.017Z,17.15
2023-03-23T16:19:30.375Z,17.12
2023-03-23T16:22:02.501Z,17.10
2023-03-23T16:24:36.891Z,17.07
2023-03-23T16:27:10.847Z,17.03
2023-03-23T16:30:02.399Z,16.99
2023-03-23T16:35:07.714Z,16.91
2023-03-23T16:37:41.129Z,16.87
2023-03-23T16:40:16.196Z,16.81
2023-03-23T16:42:48.896Z,16.76
2023-03-23T16:45:21.632Z,16.75
2023-03-23T16:47:56.003Z,16.69
2023-03-23T16:50:28.725Z,16.60
2023-03-23T16:53:01.296Z,16.48
2023-03-23T16:55:33.725Z,16.38
2023-03-23T16:58:16.481Z,16.26
2023-03-23T17:00:52.064Z,16.15
2023-03-23T17:03:26.989Z,16.04
2023-03-23T17:06:00.737Z,15.95
2023-03-23T17:08:34.056Z,15.86
2023-03-23T17:11:06.549Z,15.80
2023-03-23T17:13:39.017Z,15.75
2023-03-23T17:16:12.126Z,15.65
2023-03-23T17:18:44.220Z,15.57
2023-03-23T17:21:16.492Z,15.48
2023-03-23T17:23:48.476Z,15.43
2023-03-23T17:26:20.459Z,15.39
2023-03-23T17:28:57.814Z,15.33
2023-03-23T17:31:29.923Z,15.26
2023-03-23T17:34:06.181Z,15.21
2023-03-23T17:36:40.658Z,15.11
2023-03-23T17:39:12.768Z,14.99
2023-03-23T17:41:44.813Z,14.96
2023-03-23T17:44:16.907Z,14.94
2023-03-23T17:46:48.927Z,14.90
2023-03-23T17:49:21.065Z,14.84
2023-03-23T17:51:53.326Z,14.77
2023-03-23T17:54:25.677Z,14.70
2023-03-23T17:56:58.862Z,14.60
2023-03-23T17:59:31.343Z,14.51
2023-03-23T18:02:03.777Z,14.44
2023-03-23T18:04:36.226Z,14.37
2023-03-23T18:07:08.634Z,14.35
2023-03-23T18:09:40.859Z,14.36
2023-03-23T18:12:13.039Z,14.40
2023-03-23T18:14:45.260Z,14.45
2023-03-23T18:17:17.273Z,14.50
2023-03-23T18:19:50.142Z,14.54
2023-03-23T18:22:22.256Z,14.56
2023-03-23T18:24:54.491Z,14.60
2023-03-23T18:27:27.361Z,14.64
2023-03-23T18:30:01.575Z,14.66
2023-03-23T18:32:36.090Z,14.67
2023-03-23T18:35:12.688Z,14.68
2023-03-23T18:37:45.465Z,14.70
2023-03-23T18:40:20.281Z,14.74
2023-03-23T18:42:55.902Z,14.76
2023-03-23T18:45:28.440Z,14.77
2023-03-23T18:48:00.781Z,14.79
2023-03-23T18:50:33.283Z,14.82
2023-03-23T18:53:06.169Z,14.84
2023-03-23T18:55:38.310Z,14.86
2023-03-23T18:58:10.547Z,14.87
2023-03-23T19:00:43.416Z,14.88
2023-03-23T19:03:17.247Z,14.90
2023-03-23T19:06:16.377Z,14.92
2023-03-23T19:23:26.207Z,14.91
2023-03-23T19:25:58.480Z,14.90
2023-03-23T19:29:11.659Z,14.91
2023-03-23T19:31:25.127Z,14.91
2023-03-23T19:33:57.449Z,14.90
2023-03-23T19:36:29.731Z,14.89
2023-03-23T19:39:02.817Z,14.90
2023-03-23T19:41:36.363Z,14.89
2023-03-23T19:44:08.903Z,14.91
2023-03-23T19:46:41.216Z,14.91
2023-03-23T19:49:13.336Z,14.93
2023-03-23T19:51:45.264Z,14.92
2023-03-23T19:54:17.207Z,14.93
2023-03-23T19:56:49.310Z,14.94
2023-03-23T19:59:26.099Z,14.94
2023-03-23T20:01:58.216Z,14.93
2023-03-23T20:04:30.312Z,14.92
2023-03-23T20:07:05.901Z,14.91
2023-03-23T20:09:39.366Z,14.91
2023-03-23T20:12:11.445Z,14.90
2023-03-23T20:14:46.454Z,14.90
2023-03-23T20:17:18.787Z,14.88
2023-03-23T20:19:50.720Z,14.87
2023-03-23T20:22:23.984Z,14.88
2023-03-23T20:24:56.089Z,14.89
2023-03-23T20:27:28.188Z,14.89
2023-03-23T20:30:03.882Z,14.87
2023-03-23T20:32:37.359Z,14.86
2023-03-23T20:35:13.164Z,14.85
2023-03-23T20:37:52.711Z,14.85
2023-03-23T20:40:24.771Z,14.85
2023-03-23T20:42:57.800Z,14.83
2023-03-23T20:45:29.812Z,14.82
2023-03-23T20:48:02.618Z,14.82
2023-03-23T20:50:34.782Z,14.82
2023-03-23T20:53:06.692Z,14.80
2023-03-23T20:55:38.702Z,14.78
2023-03-23T20:58:10.789Z,14.77
2023-03-23T21:00:44.390Z,14.75
2023-03-23T21:03:17.249Z,14.73
2023-03-23T21:05:49.624Z,14.71
2023-03-23T21:08:22.349Z,14.68
2023-03-23T21:10:58.216Z,14.64
2023-03-23T21:13:30.590Z,14.60
2023-03-23T21:16:04.518Z,14.56
2023-03-23T21:18:36.845Z,14.52
2023-03-23T21:21:11.348Z,14.51
2023-03-23T21:23:52.770Z,14.50
2023-03-23T21:26:27.882Z,14.48
2023-03-23T21:29:04.415Z,14.46
2023-03-23T21:31:39.433Z,14.45
2023-03-23T21:34:13.962Z,14.42
2023-03-23T21:36:46.573Z,14.42
2023-03-23T21:39:21.744Z,14.43
2023-03-23T21:41:54.248Z,14.43
2023-03-23T21:44:27.497Z,14.43
2023-03-23T21:47:02.261Z,14.45
2023-03-23T21:49:35.961Z,14.46
2023-03-23T21:52:13.891Z,14.47
2023-03-23T21:54:45.896Z,14.47
2023-03-23T21:57:17.897Z,14.46
2023-03-23T21:59:49.848Z,14.46
2023-03-23T22:02:22.472Z,14.46
2023-03-23T22:04:57.528Z,14.45
2023-03-23T22:07:31.556Z,14.45
2023-03-23T22:16:46.226Z,14.51
2023-03-23T22:19:15.508Z,14.51
2023-03-23T22:21:44.452Z,14.52
2023-03-23T22:24:13.758Z,14.52
2023-03-23T22:26:43.139Z,14.52
2023-03-23T22:29:14.331Z,14.52
2023-03-23T22:31:45.903Z,14.50
2023-03-23T22:34:15.125Z,14.49
2023-03-23T22:36:44.526Z,14.48
2023-03-23T22:39:13.649Z,14.47
2023-03-23T22:41:44.057Z,14.46
2023-03-23T22:44:15.141Z,14.44
2023-03-23T22:46:44.600Z,14.43
2023-03-23T22:49:13.667Z,14.43
2023-03-23T22:51:42.625Z,14.42
2023-03-23T22:54:11.865Z,14.40
2023-03-23T22:56:40.798Z,14.39
2023-03-23T22:59:10.516Z,14.38
2023-03-23T23:01:39.968Z,14.38
2023-03-23T23:04:08.912Z,14.39
2023-03-23T23:06:37.823Z,14.40
2023-03-23T23:09:06.982Z,14.41
2023-03-23T23:11:38.719Z,14.41
2023-03-23T23:14:07.628Z,14.42
2023-03-23T23:16:36.647Z,14.43
2023-03-23T23:19:06.002Z,14.44
2023-03-23T23:21:38.262Z,14.45
2023-03-23T23:24:08.463Z,14.46
2023-03-23T23:26:37.347Z,14.48
2023-03-23T23:29:06.242Z,14.47
2023-03-23T23:31:35.162Z,14.48
2023-03-23T23:34:05.146Z,14.50
2023-03-23T23:36:34.245Z,14.51
2023-03-23T23:39:05.215Z,14.51
2023-03-23T23:41:35.340Z,14.52
2023-03-23T23:44:07.592Z,14.52
2023-03-23T23:46:36.673Z,14.51
2023-03-23T23:49:05.782Z,14.52
2023-03-23T23:51:34.667Z,14.54
2023-03-23T23:54:04.139Z,14.54
2023-03-23T23:56:35.958Z,14.52
2023-03-23T23:59:04.846Z,14.54
